sensor_id;sensor_type;location;lat;lon;timestamp;pressure;altitude;pressure_sealevel;temperature;humidity
63903;BME280;50072;50.678;13.938;2024-01-10T00:02:05;101194.75;;;-11.13;100.00
63903;BME280;50072;50.678;13.938;2024-01-10T00:04:38;101199.91;;;-11.13;100.00
63903;BME280;50072;50.678;13.938;2024-01-10T00:07:10;101198.38;;;-11.11;100.00
63903;BME280;50072;50.678;13.938;2024-01-10T00:09:38;101192.97;;;-11.14;100.00
63903;BME280;50072;50.678;13.938;2024-01-10T00:12:03;101188.81;;;-11.12;100.00
63903;BME280;50072;50.678;13.938;2024-01-10T00:14:38;101171.22;;;-11.16;100.00
63903;BME280;50072;50.678;13.938;2024-01-10T00:17:09;101189.06;;;-11.09;100.00
63903;BME280;50072;50.678;13.938;2024-01-10T00:19:37;101197.06;;;-11.26;100.00
63903;BME280;50072;50.678;13.938;2024-01-10T00:22:03;101191.50;;;-11.31;100.00
63903;BME280;50072;50.678;13.938;2024-01-10T00:24:29;101184.88;;;-11.48;100.00
63903;BME280;50072;50.678;13.938;2024-01-10T00:27:03;101174.78;;;-11.55;100.00
63903;BME280;50072;50.678;13.938;2024-01-10T00:29:33;101186.13;;;-11.53;100.00
63903;BME280;50072;50.678;13.938;2024-01-10T00:32:01;101170.72;;;-11.72;100.00
63903;BME280;50072;50.678;13.938;2024-01-10T00:34:33;101182.53;;;-11.55;100.00
63903;BME280;50072;50.678;13.938;2024-01-10T00:37:01;101166.22;;;-11.54;100.00
63903;BME280;50072;50.678;13.938;2024-01-10T00:39:33;101179.69;;;-11.48;100.00
63903;BME280;50072;50.678;13.938;2024-01-10T00:42:03;101178.50;;;-11.52;100.00
63903;BME280;50072;50.678;13.938;2024-01-10T00:44:33;101182.41;;;-11.47;100.00
63903;BME280;50072;50.678;13.938;2024-01-10T00:47:04;101165.34;;;-11.55;100.00
63903;BME280;50072;50.678;13.938;2024-01-10T00:49:38;101179.16;;;-11.54;100.00
63903;BME280;50072;50.678;13.938;2024-01-10T00:52:08;101181.72;;;-11.54;100.00
63903;BME280;50072;50.678;13.938;2024-01-10T00:54:38;101178.88;;;-11.57;100.00
63903;BME280;50072;50.678;13.938;2024-01-10T00:57:03;101186.13;;;-11.53;100.00
63903;BME280;50072;50.678;13.938;2024-01-10T00:59:30;101189.41;;;-11.46;100.00
63903;BME280;50072;50.678;13.938;2024-01-10T01:02:08;101186.13;;;-11.53;100.00
63903;BME280;50072;50.678;13.938;2024-01-10T01:04:40;101179.16;;;-11.54;100.00
63903;BME280;50072;50.678;13.938;2024-01-10T01:07:07;101183.41;;;-11.55;100.00
63903;BME280;50072;50.678;13.938;2024-01-10T01:09:39;101181.34;;;-11.49;100.00
63903;BME280;50072;50.678;13.938;2024-01-10T01:12:08;101184.38;;;-11.44;100.00
63903;BME280;50072;50.678;13.938;2024-01-10T01:14:35;101185.25;;;-11.43;100.00
63903;BME280;50072;50.678;13.938;2024-01-10T01:17:07;101169.38;;;-11.48;100.00
63903;BME280;50072;50.678;13.938;2024-01-10T01:19:38;101190.78;;;-11.49;100.00
63903;BME280;50072;50.678;13.938;2024-01-10T01:22:03;101176.44;;;-11.56;100.00
63903;BME280;50072;50.678;13.938;2024-01-10T01:24:33;101171.94;;;-11.58;100.00
63903;BME280;50072;50.678;13.938;2024-01-10T01:27:05;101165.03;;;-11.68;100.00
63903;BME280;50072;50.678;13.938;2024-01-10T01:29:38;101164.38;;;-11.66;100.00
63903;BME280;50072;50.678;13.938;2024-01-10T01:32:04;101183.53;;;-11.64;100.00
63903;BME280;50072;50.678;13.938;2024-01-10T01:34:32;101185.03;;;-11.66;100.00
63903;BME280;50072;50.678;13.938;2024-01-10T01:36:58;101183.06;;;-11.78;100.00
63903;BME280;50072;50.678;13.938;2024-01-10T01:39:32;101164.81;;;-11.90;100.00
63903;BME280;50072;50.678;13.938;2024-01-10T01:42:08;101175.16;;;-11.90;100.00
63903;BME280;50072;50.678;13.938;2024-01-10T01:44:38;101178.19;;;-11.75;100.00
63903;BME280;50072;50.678;13.938;2024-01-10T01:47:08;101174.94;;;-11.73;100.00
63903;BME280;50072;50.678;13.938;2024-01-10T01:49:35;101173.88;;;-11.85;100.00
63903;BME280;50072;50.678;13.938;2024-01-10T01:52:02;101171.44;;;-11.94;100.00
63903;BME280;50072;50.678;13.938;2024-01-10T01:54:36;101164.81;;;-12.01;100.00
63903;BME280;50072;50.678;13.938;2024-01-10T01:57:03;101169.84;;;-11.92;100.00
63903;BME280;50072;50.678;13.938;2024-01-10T01:59:35;101164.31;;;-11.86;100.00
63903;BME280;50072;50.678;13.938;2024-01-10T02:02:04;101145.75;;;-11.82;100.00
63903;BME280;50072;50.678;13.938;2024-01-10T02:04:33;101169.47;;;-11.57;100.00
63903;BME280;50072;50.678;13.938;2024-01-10T02:07:05;101161.47;;;-11.50;100.00
63903;BME280;50072;50.678;13.938;2024-01-10T02:09:38;101169.50;;;-11.36;100.00
63903;BME280;50072;50.678;13.938;2024-01-10T02:12:06;101162.41;;;-11.39;100.00
63903;BME280;50072;50.678;13.938;2024-01-10T02:14:33;101155.69;;;-11.37;100.00
63903;BME280;50072;50.678;13.938;2024-01-10T02:17:03;101175.88;;;-11.22;100.00
63903;BME280;50072;50.678;13.938;2024-01-10T02:19:35;101151.69;;;-11.23;100.00
63903;BME280;50072;50.678;13.938;2024-01-10T02:22:03;101150.94;;;-11.12;100.00
63903;BME280;50072;50.678;13.938;2024-01-10T02:24:36;101149.53;;;-11.08;100.00
63903;BME280;50072;50.678;13.938;2024-01-10T02:27:08;101154.69;;;-11.08;100.00
63903;BME280;50072;50.678;13.938;2024-01-10T02:29:39;101143.16;;;-11.22;100.00
63903;BME280;50072;50.678;13.938;2024-01-10T02:32:08;101152.63;;;-11.22;100.00
63903;BME280;50072;50.678;13.938;2024-01-10T02:34:36;101158.31;;;-11.16;100.00
63903;BME280;50072;50.678;13.938;2024-01-10T02:37:08;101153.13;;;-11.26;100.00
63903;BME280;50072;50.678;13.938;2024-01-10T02:39:38;101154.66;;;-11.39;100.00
63903;BME280;50072;50.678;13.938;2024-01-10T02:42:08;101157.22;;;-11.39;100.00
63903;BME280;50072;50.678;13.938;2024-01-10T02:44:35;101145.06;;;-11.50;100.00
63903;BME280;50072;50.678;13.938;2024-01-10T02:47:04;101144.53;;;-11.56;100.00
63903;BME280;50072;50.678;13.938;2024-01-10T02:49:33;101143.28;;;-11.51;100.00
63903;BME280;50072;50.678;13.938;2024-01-10T02:52:06;101142.22;;;-11.53;100.00
63903;BME280;50072;50.678;13.938;2024-01-10T02:54:38;101135.09;;;-11.56;100.00
63903;BME280;50072;50.678;13.938;2024-01-10T02:57:08;101140.38;;;-11.65;100.00
63903;BME280;50072;50.678;13.938;2024-01-10T02:59:38;101133.75;;;-11.71;100.00
63903;BME280;50072;50.678;13.938;2024-01-10T03:02:03;101123.66;;;-11.78;100.00
63903;BME280;50072;50.678;13.938;2024-01-10T03:04:30;101130.69;;;-11.67;100.00
63903;BME280;50072;50.678;13.938;2024-01-10T03:07:08;101123.00;;;-11.86;100.00
63903;BME280;50072;50.678;13.938;2024-01-10T03:09:35;101133.34;;;-11.86;100.00
63903;BME280;50072;50.678;13.938;2024-01-10T03:12:11;101120.81;;;-11.92;100.00
63903;BME280;50072;50.678;13.938;2024-01-10T03:14:38;101117.59;;;-11.89;100.00
63903;BME280;50072;50.678;13.938;2024-01-10T03:17:09;101124.47;;;-11.80;100.00
63903;BME280;50072;50.678;13.938;2024-01-10T03:19:38;101119.44;;;-11.78;100.00
63903;BME280;50072;50.678;13.938;2024-01-10T03:22:08;101123.59;;;-11.70;100.00
63903;BME280;50072;50.678;13.938;2024-01-10T03:24:38;101132.81;;;-11.42;100.00
63903;BME280;50072;50.678;13.938;2024-01-10T03:27:04;101118.47;;;-11.29;100.00
63903;BME280;50072;50.678;13.938;2024-01-10T03:29:36;101124.44;;;-11.09;100.00
63903;BME280;50072;50.678;13.938;2024-01-10T03:32:03;101125.25;;;-11.00;100.00
63903;BME280;50072;50.678;13.938;2024-01-10T03:34:38;101120.56;;;-10.94;100.00
63903;BME280;50072;50.678;13.938;2024-01-10T03:37:03;101132.09;;;-10.90;100.00
63903;BME280;50072;50.678;13.938;2024-01-10T03:39:30;101134.41;;;-10.83;100.00
63903;BME280;50072;50.678;13.938;2024-01-10T03:42:03;101120.03;;;-10.79;100.00
63903;BME280;50072;50.678;13.938;2024-01-10T03:44:38;101123.13;;;-10.73;100.00
63903;BME280;50072;50.678;13.938;2024-01-10T03:47:04;101120.03;;;-10.79;100.00
63903;BME280;50072;50.678;13.938;2024-01-10T03:49:30;101117.97;;;-10.83;100.00
63903;BME280;50072;50.678;13.938;2024-01-10T03:52:03;101091.22;;;-10.94;100.00
63903;BME280;50072;50.678;13.938;2024-01-10T03:54:35;101112.81;;;-10.94;100.00
63903;BME280;50072;50.678;13.938;2024-01-10T03:57:05;101112.16;;;-10.81;100.00
63903;BME280;50072;50.678;13.938;2024-01-10T03:59:38;101105.06;;;-10.94;100.00
63903;BME280;50072;50.678;13.938;2024-01-10T04:02:09;101100.38;;;-10.87;100.00
63903;BME280;50072;50.678;13.938;2024-01-10T04:04:38;101098.59;;;-10.99;100.00
63903;BME280;50072;50.678;13.938;2024-01-10T04:07:04;101101.03;;;-11.00;100.00
63903;BME280;50072;50.678;13.938;2024-01-10T04:09:38;101099.91;;;-11.04;100.00
63903;BME280;50072;50.678;13.938;2024-01-10T04:12:05;101101.16;;;-10.99;100.00
63903;BME280;50072;50.678;13.938;2024-01-10T04:14:38;101090.72;;;-11.11;100.00
63903;BME280;50072;50.678;13.938;2024-01-10T04:17:03;101102.09;;;-11.08;100.00
63903;BME280;50072;50.678;13.938;2024-01-10T04:19:38;101082.72;;;-11.24;100.00
63903;BME280;50072;50.678;13.938;2024-01-10T04:22:08;101096.25;;;-11.16;100.00
63903;BME280;50072;50.678;13.938;2024-01-10T04:24:36;101110.25;;;-11.14;100.00
63903;BME280;50072;50.678;13.938;2024-01-10T04:27:02;101091.88;;;-11.28;100.00
63903;BME280;50072;50.678;13.938;2024-01-10T04:29:35;101118.84;;;-11.34;100.00
63903;BME280;50072;50.678;13.938;2024-01-10T04:32:06;101126.59;;;-11.45;100.00
63903;BME280;50072;50.678;13.938;2024-01-10T04:34:33;101118.09;;;-11.43;100.00
63903;BME280;50072;50.678;13.938;2024-01-10T04:37:01;101123.63;;;-11.39;100.00
63903;BME280;50072;50.678;13.938;2024-01-10T04:39:29;101113.16;;;-11.51;100.00
63903;BME280;50072;50.678;13.938;2024-01-10T04:42:10;101106.69;;;-11.56;100.00
63903;BME280;50072;50.678;13.938;2024-01-10T04:44:37;101111.72;;;-11.68;100.00
63903;BME280;50072;50.678;13.938;2024-01-10T04:47:10;101116.63;;;-11.60;100.00
63903;BME280;50072;50.678;13.938;2024-01-10T04:49:38;101100.63;;;-11.67;100.00
63903;BME280;50072;50.678;13.938;2024-01-10T04:52:03;101095.56;;;-11.75;100.00
63903;BME280;50072;50.678;13.938;2024-01-10T04:54:30;101108.34;;;-11.77;100.00
63903;BME280;50072;50.678;13.938;2024-01-10T04:56:59;101089.47;;;-11.96;100.00
63903;BME280;50072;50.678;13.938;2024-01-10T04:59:25;101104.69;;;-11.89;100.00
63903;BME280;50072;50.678;13.938;2024-01-10T05:01:51;101091.50;;;-11.92;100.00
63903;BME280;50072;50.678;13.938;2024-01-10T05:04:17;101082.91;;;-11.83;100.00
63903;BME280;50072;50.678;13.938;2024-01-10T05:06:45;101097.91;;;-11.68;100.00
63903;BME280;50072;50.678;13.938;2024-01-10T05:09:12;101082.13;;;-11.71;100.00
63903;BME280;50072;50.678;13.938;2024-01-10T05:11:38;101090.44;;;-11.55;100.00
63903;BME280;50072;50.678;13.938;2024-01-10T05:14:04;101105.53;;;-11.59;100.00
63903;BME280;50072;50.678;13.938;2024-01-10T05:16:29;101096.84;;;-11.60;100.00
63903;BME280;50072;50.678;13.938;2024-01-10T05:19:08;101084.88;;;-11.70;100.00
63903;BME280;50072;50.678;13.938;2024-01-10T05:21:35;101086.66;;;-11.69;100.00
63903;BME280;50072;50.678;13.938;2024-01-10T05:24:01;101094.94;;;-11.63;100.00
63903;BME280;50072;50.678;13.938;2024-01-10T05:26:28;101089.34;;;-11.67;100.00
63903;BME280;50072;50.678;13.938;2024-01-10T05:28:53;101095.44;;;-11.67;100.00
63903;BME280;50072;50.678;13.938;2024-01-10T05:31:19;101098.91;;;-11.66;100.00
63903;BME280;50072;50.678;13.938;2024-01-10T05:33:45;101097.53;;;-11.63;100.00
63903;BME280;50072;50.678;13.938;2024-01-10T05:36:11;101079.41;;;-11.73;100.00
63903;BME280;50072;50.678;13.938;2024-01-10T05:38:37;101091.94;;;-11.67;100.00
63903;BME280;50072;50.678;13.938;2024-01-10T05:41:03;101097.34;;;-11.74;100.00
63903;BME280;50072;50.678;13.938;2024-01-10T05:43:29;101088.19;;;-11.81;100.00
63903;BME280;50072;50.678;13.938;2024-01-10T05:45:55;101074.34;;;-11.82;100.00
63903;BME280;50072;50.678;13.938;2024-01-10T05:48:21;101092.75;;;-11.68;100.00
63903;BME280;50072;50.678;13.938;2024-01-10T05:50:47;101083.03;;;-11.71;100.00
63903;BME280;50072;50.678;13.938;2024-01-10T05:53:13;101093.63;;;-11.68;100.00
63903;BME280;50072;50.678;13.938;2024-01-10T05:55:43;101088.09;;;-11.62;100.00
63903;BME280;50072;50.678;13.938;2024-01-10T05:58:10;101083.81;;;-11.62;100.00
63903;BME280;50072;50.678;13.938;2024-01-10T06:00:36;101082.78;;;-11.64;100.00
63903;BME280;50072;50.678;13.938;2024-01-10T06:03:03;101078.91;;;-11.69;100.00
63903;BME280;50072;50.678;13.938;2024-01-10T06:05:28;101077.06;;;-11.80;100.00
63903;BME280;50072;50.678;13.938;2024-01-10T06:07:55;101082.53;;;-11.77;100.00
63903;BME280;50072;50.678;13.938;2024-01-10T06:10:21;101095.69;;;-11.74;100.00
63903;BME280;50072;50.678;13.938;2024-01-10T06:12:47;101064.41;;;-11.98;100.00
63903;BME280;50072;50.678;13.938;2024-01-10T06:15:13;101075.25;;;-12.02;100.00
63903;BME280;50072;50.678;13.938;2024-01-10T06:17:40;101084.41;;;-11.85;100.00
63903;BME280;50072;50.678;13.938;2024-01-10T06:20:07;101094.75;;;-11.74;100.00
63903;BME280;50072;50.678;13.938;2024-01-10T06:22:34;101090.09;;;-11.78;100.00
63903;BME280;50072;50.678;13.938;2024-01-10T06:25:01;101082.97;;;-11.91;100.00
63903;BME280;50072;50.678;13.938;2024-01-10T06:27:27;101080.03;;;-11.96;100.00
63903;BME280;50072;50.678;13.938;2024-01-10T06:29:54;101095.94;;;-11.71;100.00
63903;BME280;50072;50.678;13.938;2024-01-10T06:32:20;101081.84;;;-11.74;100.00
63903;BME280;50072;50.678;13.938;2024-01-10T06:34:45;101087.44;;;-11.59;100.00
63903;BME280;50072;50.678;13.938;2024-01-10T06:37:11;101087.44;;;-11.59;100.00
63903;BME280;50072;50.678;13.938;2024-01-10T06:39:38;101099.09;;;-11.44;100.00
63903;BME280;50072;50.678;13.938;2024-01-10T06:42:04;101085.53;;;-11.41;100.00
63903;BME280;50072;50.678;13.938;2024-01-10T06:44:31;101102.47;;;-11.35;100.00
63903;BME280;50072;50.678;13.938;2024-01-10T06:46:57;101091.47;;;-11.32;100.00
63903;BME280;50072;50.678;13.938;2024-01-10T06:49:23;101103.50;;;-11.33;100.00
63903;BME280;50072;50.678;13.938;2024-01-10T06:51:50;101105.28;;;-11.32;100.00
63903;BME280;50072;50.678;13.938;2024-01-10T06:54:16;101093.28;;;-11.41;100.00
63903;BME280;50072;50.678;13.938;2024-01-10T06:56:44;101111.78;;;-11.37;100.00
63903;BME280;50072;50.678;13.938;2024-01-10T06:59:09;101108.38;;;-11.46;100.00
63903;BME280;50072;50.678;13.938;2024-01-10T07:01:36;101111.72;;;-11.47;100.00
63903;BME280;50072;50.678;13.938;2024-01-10T07:04:03;101107.38;;;-11.48;100.00
63903;BME280;50072;50.678;13.938;2024-01-10T07:06:33;101123.25;;;-11.43;100.00
63903;BME280;50072;50.678;13.938;2024-01-10T07:09:03;101124.66;;;-11.47;100.00
63903;BME280;50072;50.678;13.938;2024-01-10T07:11:34;101112.78;;;-11.55;100.00
63903;BME280;50072;50.678;13.938;2024-01-10T07:14:03;101120.53;;;-11.55;100.00
63903;BME280;50072;50.678;13.938;2024-01-10T07:16:33;101122.28;;;-11.65;100.00
63903;BME280;50072;50.678;13.938;2024-01-10T07:19:05;101060.16;;;-11.87;100.00
63903;BME280;50072;50.678;13.938;2024-01-10T07:21:37;101105.03;;;-11.55;100.00
63903;BME280;50072;50.678;13.938;2024-01-10T07:24:03;101102.03;;;-11.60;100.00
63903;BME280;50072;50.678;13.938;2024-01-10T07:26:38;101120.09;;;-11.60;100.00
63903;BME280;50072;50.678;13.938;2024-01-10T07:29:05;101116.88;;;-11.68;100.00
63903;BME280;50072;50.678;13.938;2024-01-10T07:31:37;101103.44;;;-11.64;100.00
63903;BME280;50072;50.678;13.938;2024-01-10T07:34:08;101115.34;;;-11.55;100.00
63903;BME280;50072;50.678;13.938;2024-01-10T07:36:41;101111.34;;;-11.52;100.00
63903;BME280;50072;50.678;13.938;2024-01-10T07:39:08;101110.97;;;-11.46;100.00
63903;BME280;50072;50.678;13.938;2024-01-10T07:41:33;101114.88;;;-11.31;100.00
63903;BME280;50072;50.678;13.938;2024-01-10T07:44:07;101125.47;;;-11.17;100.00
63903;BME280;50072;50.678;13.938;2024-01-10T07:46:38;101129.34;;;-11.12;100.00
63903;BME280;50072;50.678;13.938;2024-01-10T07:49:04;101127.78;;;-11.20;100.00
63903;BME280;50072;50.678;13.938;2024-01-10T07:51:36;101120.97;;;-11.09;100.00
63903;BME280;50072;50.678;13.938;2024-01-10T07:54:08;101137.91;;;-11.03;100.00
63903;BME280;50072;50.678;13.938;2024-01-10T07:56:35;101135.03;;;-11.06;100.00
63903;BME280;50072;50.678;13.938;2024-01-10T07:59:06;101135.81;;;-11.17;100.00
63903;BME280;50072;50.678;13.938;2024-01-10T08:01:33;101142.28;;;-11.12;100.00
63903;BME280;50072;50.678;13.938;2024-01-10T08:04:05;101130.28;;;-11.01;100.00
63903;BME280;50072;50.678;13.938;2024-01-10T08:06:37;101128.06;;;-10.97;100.00
63903;BME280;50072;50.678;13.938;2024-01-10T08:09:03;101131.69;;;-10.84;100.00
63903;BME280;50072;50.678;13.938;2024-01-10T08:11:38;101136.72;;;-10.86;100.00
63903;BME280;50072;50.678;13.938;2024-01-10T08:14:04;101133.63;;;-10.92;100.00
63903;BME280;50072;50.678;13.938;2024-01-10T08:16:33;101142.16;;;-10.83;100.00
63903;BME280;50072;50.678;13.938;2024-01-10T08:19:08;101130.50;;;-10.78;100.00
63903;BME280;50072;50.678;13.938;2024-01-10T08:21:38;101133.09;;;-10.57;100.00
63903;BME280;50072;50.678;13.938;2024-01-10T08:24:06;101121.53;;;-10.50;100.00
63903;BME280;50072;50.678;13.938;2024-01-10T08:26:33;101137.44;;;-10.35;100.00
63903;BME280;50072;50.678;13.938;2024-01-10T08:29:03;101131.19;;;-10.27;100.00
63903;BME280;50072;50.678;13.938;2024-01-10T08:31:34;101136.19;;;-10.18;100.00
63903;BME280;50072;50.678;13.938;2024-01-10T08:34:08;101138.63;;;-10.10;100.00
63903;BME280;50072;50.678;13.938;2024-01-10T08:36:37;101138.22;;;-10.04;100.00
63903;BME280;50072;50.678;13.938;2024-01-10T08:39:04;101132.63;;;-9.98;100.00
63903;BME280;50072;50.678;13.938;2024-01-10T08:41:38;101137.41;;;-9.93;100.00
63903;BME280;50072;50.678;13.938;2024-01-10T08:44:34;101135.53;;;-9.83;100.00
63903;BME280;50072;50.678;13.938;2024-01-10T08:47:03;101141.56;;;-9.73;100.00
63903;BME280;50072;50.678;13.938;2024-01-10T08:49:30;101124.84;;;-9.66;100.00
63903;BME280;50072;50.678;13.938;2024-01-10T08:52:02;101138.13;;;-9.39;100.00
63903;BME280;50072;50.678;13.938;2024-01-10T08:54:34;101126.03;;;-9.28;100.00
63903;BME280;50072;50.678;13.938;2024-01-10T08:57:05;101133.31;;;-9.12;100.00
63903;BME280;50072;50.678;13.938;2024-01-10T08:59:35;101134.16;;;-8.90;100.00
63903;BME280;50072;50.678;13.938;2024-01-10T09:02:04;101117.38;;;-8.83;100.00
63903;BME280;50072;50.678;13.938;2024-01-10T09:04:34;101136.50;;;-8.59;100.00
63903;BME280;50072;50.678;13.938;2024-01-10T09:07:03;101133.66;;;-8.38;100.00
63903;BME280;50072;50.678;13.938;2024-01-10T09:09:35;101134.56;;;-8.14;100.00
63903;BME280;50072;50.678;13.938;2024-01-10T09:12:08;101118.94;;;-7.78;100.00
63903;BME280;50072;50.678;13.938;2024-01-10T09:14:33;101126.66;;;-7.43;100.00
63903;BME280;50072;50.678;13.938;2024-01-10T09:17:03;101131.59;;;-7.09;100.00
63903;BME280;50072;50.678;13.938;2024-01-10T09:19:32;101133.00;;;-6.76;100.00
63903;BME280;50072;50.678;13.938;2024-01-10T09:22:08;101136.31;;;-6.39;100.00
63903;BME280;50072;50.678;13.938;2024-01-10T09:24:33;101133.41;;;-6.17;100.00
63903;BME280;50072;50.678;13.938;2024-01-10T09:27:04;101136.25;;;-5.86;100.00
63903;BME280;50072;50.678;13.938;2024-01-10T09:29:38;101131.19;;;-5.43;100.00
63903;BME280;50072;50.678;13.938;2024-01-10T09:32:09;101132.56;;;-5.06;100.00
63903;BME280;50072;50.678;13.938;2024-01-10T09:34:38;101130.09;;;-4.75;100.00
63903;BME280;50072;50.678;13.938;2024-01-10T09:37:04;101131.47;;;-4.37;100.00
63903;BME280;50072;50.678;13.938;2024-01-10T09:39:30;101130.66;;;-4.06;100.00
63903;BME280;50072;50.678;13.938;2024-01-10T09:42:04;101125.81;;;-3.83;91.64
63903;BME280;50072;50.678;13.938;2024-01-10T09:44:38;101122.59;;;-3.62;81.41
63903;BME280;50072;50.678;13.938;2024-01-10T09:47:11;101119.47;;;-3.40;77.83
63903;BME280;50072;50.678;13.938;2024-01-10T09:49:38;101113.44;;;-3.06;76.62
63903;BME280;50072;50.678;13.938;2024-01-10T09:52:10;101107.16;;;-2.75;75.39
63903;BME280;50072;50.678;13.938;2024-01-10T09:54:38;101100.66;;;-2.49;75.38
63903;BME280;50072;50.678;13.938;2024-01-10T09:57:08;101098.44;;;-2.23;73.08
63903;BME280;50072;50.678;13.938;2024-01-10T09:59:38;101103.00;;;-2.19;71.06
63903;BME280;50072;50.678;13.938;2024-01-10T10:02:09;101099.09;;;-1.92;71.76
63903;BME280;50072;50.678;13.938;2024-01-10T10:04:39;101099.38;;;-1.67;69.37
63903;BME280;50072;50.678;13.938;2024-01-10T10:07:10;101103.03;;;-1.26;68.52
63903;BME280;50072;50.678;13.938;2024-01-10T10:09:36;101094.69;;;-1.17;66.93
63903;BME280;50072;50.678;13.938;2024-01-10T10:12:04;101093.31;;;-1.09;65.76
63903;BME280;50072;50.678;13.938;2024-01-10T10:14:30;101090.94;;;-1.03;66.64
63903;BME280;50072;50.678;13.938;2024-01-10T10:17:13;101093.69;;;-0.80;67.21
63903;BME280;50072;50.678;13.938;2024-01-10T10:19:40;101086.03;;;-0.55;65.92
63903;BME280;50072;50.678;13.938;2024-01-10T10:22:10;101081.09;;;-0.68;65.24
63903;BME280;50072;50.678;13.938;2024-01-10T10:24:38;101074.72;;;-0.73;64.95
63903;BME280;50072;50.678;13.938;2024-01-10T10:27:08;101078.50;;;-0.47;64.94
63903;BME280;50072;50.678;13.938;2024-01-10T10:29:38;101076.09;;;0.02;63.83
63903;BME280;50072;50.678;13.938;2024-01-10T10:32:06;101072.28;;;0.39;62.85
63903;BME280;50072;50.678;13.938;2024-01-10T10:34:34;101067.06;;;0.40;62.83
63903;BME280;50072;50.678;13.938;2024-01-10T10:37:01;101068.13;;;0.45;61.42
63903;BME280;50072;50.678;13.938;2024-01-10T10:39:28;101076.75;;;-0.04;61.64
63903;BME280;50072;50.678;13.938;2024-01-10T10:41:56;101059.41;;;0.24;60.66
63903;BME280;50072;50.678;13.938;2024-01-10T10:44:24;101065.03;;;0.56;61.00
63903;BME280;50072;50.678;13.938;2024-01-10T10:46:53;101061.56;;;0.81;59.46
63903;BME280;50072;50.678;13.938;2024-01-10T10:49:29;101058.41;;;0.91;59.22
63903;BME280;50072;50.678;13.938;2024-01-10T10:51:59;101064.47;;;1.37;58.29
63903;BME280;50072;50.678;13.938;2024-01-10T10:54:28;101052.75;;;2.09;56.75
63903;BME280;50072;50.678;13.938;2024-01-10T10:57:02;101048.22;;;2.94;54.48
63903;BME280;50072;50.678;13.938;2024-01-10T10:59:29;101048.72;;;3.45;52.69
63903;BME280;50072;50.678;13.938;2024-01-10T11:01:57;101046.56;;;3.63;52.66
63903;BME280;50072;50.678;13.938;2024-01-10T11:04:25;101032.97;;;4.24;50.43
63903;BME280;50072;50.678;13.938;2024-01-10T11:06:52;101028.41;;;4.58;49.15
63903;BME280;50072;50.678;13.938;2024-01-10T11:09:20;101024.22;;;5.14;48.04
63903;BME280;50072;50.678;13.938;2024-01-10T11:20:44;101014.28;;;6.04;44.95
63903;BME280;50072;50.678;13.938;2024-01-10T11:23:42;101005.06;;;7.16;43.88
63903;BME280;50072;50.678;13.938;2024-01-10T11:26:16;101006.63;;;7.93;42.14
63903;BME280;50072;50.678;13.938;2024-01-10T11:28:56;100995.09;;;7.99;39.61
63903;BME280;50072;50.678;13.938;2024-01-10T11:31:34;100990.09;;;8.45;39.92
63903;BME280;50072;50.678;13.938;2024-01-10T11:34:04;100995.50;;;8.64;38.81
63903;BME280;50072;50.678;13.938;2024-01-10T11:36:34;100997.88;;;8.13;39.12
63903;BME280;50072;50.678;13.938;2024-01-10T11:39:04;100997.63;;;7.79;40.05
63903;BME280;50072;50.678;13.938;2024-01-10T11:41:38;100992.53;;;5.74;43.67
63903;BME280;50072;50.678;13.938;2024-01-10T11:47:04;100991.31;;;2.75;50.28
63903;BME280;50072;50.678;13.938;2024-01-10T11:49:37;100989.53;;;1.59;52.60
63903;BME280;50072;50.678;13.938;2024-01-10T11:52:04;100988.22;;;0.93;54.44
63903;BME280;50072;50.678;13.938;2024-01-10T11:54:42;100992.63;;;0.44;54.62
63903;BME280;50072;50.678;13.938;2024-01-10T11:59:59;100988.97;;;-0.27;58.48
63903;BME280;50072;50.678;13.938;2024-01-10T12:02:38;101003.84;;;-0.28;57.73
63903;BME280;50072;50.678;13.938;2024-01-10T12:05:08;100999.25;;;-0.55;58.11
63903;BME280;50072;50.678;13.938;2024-01-10T12:07:34;100986.56;;;-0.86;58.78
63903;BME280;50072;50.678;13.938;2024-01-10T12:10:04;100987.38;;;-0.87;59.24
63903;BME280;50072;50.678;13.938;2024-01-10T12:12:34;100986.56;;;-0.86;60.33
63903;BME280;50072;50.678;13.938;2024-01-10T12:15:08;100993.50;;;-0.88;59.78
63903;BME280;50072;50.678;13.938;2024-01-10T12:17:38;100982.44;;;-1.00;60.34
63903;BME280;50072;50.678;13.938;2024-01-10T12:20:10;100975.91;;;-1.10;59.77
63903;BME280;50072;50.678;13.938;2024-01-10T12:22:38;100972.19;;;-1.15;60.37
63903;BME280;50072;50.678;13.938;2024-01-10T12:25:07;100986.16;;;-1.16;59.39
63903;BME280;50072;50.678;13.938;2024-01-10T12:27:34;100980.41;;;-1.08;56.94
63903;BME280;50072;50.678;13.938;2024-01-10T12:30:08;100941.16;;;-1.24;55.51
63903;BME280;50072;50.678;13.938;2024-01-10T12:32:34;100980.19;;;-1.12;57.14
63903;BME280;50072;50.678;13.938;2024-01-10T12:35:04;100979.50;;;-1.08;57.67
63903;BME280;50072;50.678;13.938;2024-01-10T12:37:34;100966.38;;;-1.08;57.58
63903;BME280;50072;50.678;13.938;2024-01-10T12:40:04;100970.50;;;-1.13;57.39
63903;BME280;50072;50.678;13.938;2024-01-10T12:42:38;100962.56;;;-1.15;58.43
63903;BME280;50072;50.678;13.938;2024-01-10T12:45:04;100969.06;;;-1.07;58.24
63903;BME280;50072;50.678;13.938;2024-01-10T12:47:31;100960.53;;;-1.01;58.45
63903;BME280;50072;50.678;13.938;2024-01-10T12:50:08;100954.19;;;-1.06;59.00
63903;BME280;50072;50.678;13.938;2024-01-10T12:52:35;100961.09;;;-0.87;58.11